createdAt,value
2023-02-19T00:01:52.614Z,61.77
2023-02-19T00:04:22.552Z,61.63
2023-02-19T00:06:51.543Z,61.22
2023-02-19T00:09:20.449Z,61.14
2023-02-19T00:11:48.899Z,60.75
2023-02-19T00:14:20.879Z,60.91
2023-02-19T00:16:49.926Z,60.79
2023-02-19T00:19:20.629Z,60.87
2023-02-19T00:21:51.845Z,60.92
2023-02-19T00:24:21.129Z,60.86
2023-02-19T00:26:49.602Z,60.96
2023-02-19T00:29:20.426Z,60.74
2023-02-19T00:31:49.092Z,60.61
2023-02-19T00:34:17.535Z,60.86
2023-02-19T00:36:45.801Z,60.65
2023-02-19T00:39:18.682Z,60.60
2023-02-19T00:41:47.286Z,60.49
2023-02-19T00:44:16.397Z,59.99
2023-02-19T00:46:47.406Z,59.77
2023-02-19T00:49:21.974Z,59.77
2023-02-19T00:51:52.253Z,60.15
2023-02-19T00:54:22.732Z,59.87
2023-02-19T00:56:51.801Z,60.00
2023-02-19T00:59:20.260Z,60.16
2023-02-19T01:01:49.832Z,60.15
2023-02-19T01:04:18.758Z,60.08
2023-02-19T01:06:48.926Z,59.96
2023-02-19T01:09:17.172Z,60.02
2023-02-19T01:11:45.122Z,60.12
2023-02-19T01:14:13.289Z,60.02
2023-02-19T01:16:41.362Z,60.43
2023-02-19T01:19:09.636Z,60.43
2023-02-19T01:21:37.869Z,60.06
2023-02-19T01:24:06.341Z,60.38
2023-02-19T01:26:34.465Z,60.54
2023-02-19T01:29:04.995Z,60.69
2023-02-19T01:31:33.785Z,60.29
2023-02-19T01:34:04.430Z,60.61
2023-02-19T01:36:34.022Z,60.36
2023-02-19T01:39:05.249Z,60.48
2023-02-19T01:41:38.135Z,60.65
2023-02-19T01:44:12.384Z,60.50
2023-02-19T01:46:42.783Z,60.55
2023-02-19T01:49:37.596Z,60.75
2023-02-19T01:52:19.190Z,60.65
2023-02-19T01:54:49.690Z,60.80
2023-02-19T01:57:24.346Z,60.74
2023-02-19T01:59:55.361Z,60.94
2023-02-19T02:02:28.690Z,61.02
2023-02-19T02:05:00.312Z,60.95
2023-02-19T02:07:47.026Z,60.93
2023-02-19T02:10:20.801Z,61.01
2023-02-19T02:12:50.664Z,60.55
2023-02-19T02:15:19.655Z,60.85
2023-02-19T02:18:06.739Z,60.85
2023-02-19T02:20:59.503Z,60.97
2023-02-19T02:24:23.821Z,61.06
2023-02-19T02:27:11.837Z,61.09
2023-02-19T02:30:14.167Z,60.69
2023-02-19T02:33:12.326Z,60.93
2023-02-19T02:35:52.572Z,60.93
2023-02-19T02:38:25.628Z,61.13
2023-02-19T02:40:55.024Z,61.01
2023-02-19T02:43:23.391Z,61.28
2023-02-19T02:45:52.359Z,60.89
2023-02-19T02:48:30.050Z,60.84
2023-02-19T02:51:13.598Z,61.21
2023-02-19T02:54:39.604Z,61.26
2023-02-19T02:57:14.892Z,60.80
2023-02-19T03:00:10.339Z,60.73
2023-02-19T03:02:40.270Z,61.38
2023-02-19T03:05:42.021Z,61.07
2023-02-19T03:08:29.664Z,61.30
2023-02-19T03:11:28.969Z,61.12
2023-02-19T03:14:23.087Z,61.04
2023-02-19T03:17:15.212Z,61.19
2023-02-19T03:19:49.895Z,60.90
2023-02-19T03:22:24.112Z,60.90
2023-02-19T03:25:21.272Z,60.80
2023-02-19T03:27:51.011Z,60.74
2023-02-19T03:30:24.044Z,60.40
2023-02-19T03:32:58.131Z,60.39
2023-02-19T03:35:30.727Z,60.22
2023-02-19T03:38:37.235Z,60.26
2023-02-19T03:41:35.830Z,59.92
2023-02-19T03:44:15.949Z,59.84
2023-02-19T03:47:03.814Z,60.17
2023-02-19T03:49:48.657Z,59.79
2023-02-19T03:52:24.591Z,59.63
2023-02-19T03:55:04.180Z,59.52
2023-02-19T03:57:48.019Z,59.62
2023-02-19T04:00:39.541Z,59.72
2023-02-19T04:03:45.399Z,59.89
2023-02-19T04:06:19.836Z,59.74
2023-02-19T04:08:52.387Z,60.12
2023-02-19T04:11:22.620Z,60.27
2023-02-19T04:14:03.282Z,60.19
2023-02-19T04:16:33.876Z,60.14
2023-02-19T04:19:19.806Z,60.44
2023-02-19T04:21:50.063Z,60.63
2023-02-19T04:24:29.783Z,60.84
2023-02-19T04:26:58.881Z,61.24
2023-02-19T04:29:26.952Z,60.96
2023-02-19T04:31:55.224Z,61.05
2023-02-19T04:34:23.397Z,61.18
2023-02-19T04:36:52.085Z,61.19
2023-02-19T04:39:20.904Z,61.29
2023-02-19T04:41:48.770Z,61.60
2023-02-19T04:44:16.695Z,61.42
2023-02-19T04:46:44.774Z,61.34
2023-02-19T04:49:12.948Z,61.53
2023-02-19T04:51:41.537Z,61.48
2023-02-19T04:54:09.910Z,61.78
2023-02-19T04:56:38.287Z,61.46
2023-02-19T04:59:06.474Z,61.66
2023-02-19T05:01:34.770Z,61.45
2023-02-19T05:04:03.394Z,61.52
2023-02-19T05:06:31.502Z,61.45
2023-02-19T05:08:59.875Z,61.22
2023-02-19T05:11:28.195Z,61.34
2023-02-19T05:13:56.634Z,61.27
2023-02-19T05:16:24.711Z,61.46
2023-02-19T05:18:53.094Z,61.18
2023-02-19T05:21:21.155Z,61.11
2023-02-19T05:23:49.126Z,61.07
2023-02-19T05:26:21.010Z,61.39
2023-02-19T05:28:52.467Z,61.17
2023-02-19T05:31:21.532Z,60.95
2023-02-19T05:33:52.991Z,60.79
2023-02-19T05:36:22.287Z,60.33
2023-02-19T05:38:57.385Z,60.11
2023-02-19T05:41:31.104Z,59.96
2023-02-19T05:43:59.262Z,59.79
2023-02-19T05:46:29.923Z,59.77
2023-02-19T05:49:00.735Z,59.53
2023-02-19T05:51:29.458Z,59.04
2023-02-19T05:53:58.136Z,58.80
2023-02-19T05:56:39.545Z,58.71
2023-02-19T05:59:22.470Z,58.52
2023-02-19T06:01:52.765Z,58.12
2023-02-19T06:04:21.059Z,57.94
2023-02-19T06:06:49.832Z,57.89
2023-02-19T06:09:17.819Z,58.09
2023-02-19T06:11:46.712Z,57.74
2023-02-19T06:14:14.676Z,57.69
2023-02-19T06:16:43.036Z,57.38
2023-02-19T06:19:11.091Z,57.14
2023-02-19T06:21:39.189Z,57.22
2023-02-19T06:24:10.642Z,56.85
2023-02-19T06:26:39.027Z,56.79
2023-02-19T06:29:07.511Z,57.08
2023-02-19T06:31:35.777Z,56.63
2023-02-19T06:34:05.294Z,56.59
2023-02-19T06:36:33.966Z,56.33
2023-02-19T06:39:04.277Z,56.02
2023-02-19T06:41:32.579Z,55.99
2023-02-19T06:44:00.647Z,56.15
2023-02-19T06:46:30.910Z,55.96
2023-02-19T06:48:59.242Z,55.71
2023-02-19T06:51:29.792Z,55.31
2023-02-19T06:53:58.469Z,55.03
2023-02-19T06:56:32.366Z,55.10
2023-02-19T06:59:03.572Z,55.04
2023-02-19T07:01:33.856Z,54.70
2023-02-19T07:04:02.493Z,54.91
2023-02-19T07:06:31.621Z,54.53
2023-02-19T07:09:00.623Z,54.54
2023-02-19T07:11:34.637Z,54.59
2023-02-19T07:14:07.637Z,54.28
2023-02-19T07:16:36.526Z,53.95
2023-02-19T07:19:04.601Z,52.98
2023-02-19T07:21:37.817Z,53.00
2023-02-19T07:24:06.853Z,52.72
2023-02-19T07:26:34.942Z,52.76
2023-02-19T07:29:02.933Z,52.14
2023-02-19T07:31:31.089Z,52.31
2023-02-19T07:33:59.253Z,52.24
2023-02-19T07:36:27.219Z,52.02
2023-02-19T07:39:00.593Z,52.24
2023-02-19T07:41:28.591Z,51.99
2023-02-19T07:43:58.541Z,52.05
2023-02-19T07:46:26.529Z,51.51
2023-02-19T07:48:54.556Z,51.10
2023-02-19T07:51:23.502Z,50.16
2023-02-19T07:53:51.987Z,50.38
2023-02-19T07:56:20.837Z,50.47
2023-02-19T07:58:49.093Z,49.99
2023-02-19T08:01:40.228Z,48.98
2023-02-19T08:04:10.748Z,48.01
2023-02-19T08:06:39.475Z,48.11
2023-02-19T08:09:08.306Z,48.72
2023-02-19T08:11:55.323Z,48.29
2023-02-19T08:14:27.732Z,47.28
2023-02-19T08:16:56.679Z,47.83
2023-02-19T08:19:25.072Z,47.83
2023-02-19T08:21:53.796Z,48.00
2023-02-19T08:24:21.805Z,48.06
2023-02-19T08:26:50.005Z,48.05
2023-02-19T08:29:18.274Z,48.05
2023-02-19T08:31:46.456Z,47.93
2023-02-19T08:34:15.540Z,48.05
2023-02-19T08:36:44.349Z,47.17
2023-02-19T08:39:12.317Z,46.62
2023-02-19T08:41:40.516Z,45.16
2023-02-19T08:44:08.489Z,45.26
2023-02-19T08:46:36.448Z,45.84
2023-02-19T08:49:04.780Z,45.27
2023-02-19T08:51:32.963Z,45.79
2023-02-19T08:54:03.498Z,46.64
2023-02-19T08:56:31.772Z,46.95
2023-02-19T08:58:59.744Z,46.21
2023-02-19T09:01:27.788Z,46.82
2023-02-19T09:03:55.809Z,46.62
2023-02-19T09:06:23.842Z,46.81
2023-02-19T09:08:52.167Z,46.27
2023-02-19T09:11:20.203Z,46.43
2023-02-19T09:13:48.195Z,45.18
2023-02-19T09:16:16.111Z,45.07
2023-02-19T09:18:45.945Z,44.55
2023-02-19T09:21:14.129Z,44.56
2023-02-19T09:23:42.285Z,44.34
2023-02-19T09:26:11.483Z,44.56
2023-02-19T09:28:41.982Z,43.70
2023-02-19T09:31:13.251Z,42.67
2023-02-19T09:33:46.211Z,41.56
2023-02-19T09:36:16.221Z,42.34
2023-02-19T09:38:45.270Z,41.50
2023-02-19T09:41:32.982Z,40.43
2023-02-19T09:44:04.329Z,40.15
2023-02-19T09:46:42.258Z,40.12
2023-02-19T09:49:18.480Z,39.60
2023-02-19T09:51:52.790Z,38.66
2023-02-19T09:54:25.084Z,38.88
2023-02-19T09:56:57.891Z,38.26
2023-02-19T09:59:48.178Z,37.65
2023-02-19T10:02:20.134Z,37.24
2023-02-19T10:04:51.391Z,37.60
2023-02-19T10:07:23.968Z,37.79
2023-02-19T10:10:01.189Z,37.74
2023-02-19T10:12:35.196Z,37.88
2023-02-19T10:15:17.170Z,37.80
2023-02-19T10:17:45.537Z,37.58
2023-02-19T10:20:17.178Z,36.52
2023-02-19T10:22:45.875Z,37.14
2023-02-19T10:25:17.264Z,37.31
2023-02-19T10:27:45.617Z,37.03
2023-02-19T10:30:22.078Z,37.30
2023-02-19T10:33:08.840Z,37.33
2023-02-19T10:35:38.395Z,37.15
2023-02-19T10:38:09.943Z,37.39
2023-02-19T10:40:45.089Z,37.58
2023-02-19T10:43:37.301Z,37.17
2023-02-19T10:46:28.575Z,36.77
2023-02-19T10:49:05.527Z,35.38
2023-02-19T10:51:38.219Z,35.53
2023-02-19T10:54:31.370Z,35.77
2023-02-19T10:57:18.839Z,36.22
2023-02-19T10:59:58.279Z,35.77
2023-02-19T11:02:27.014Z,36.59
2023-02-19T11:05:12.241Z,35.82
2023-02-19T11:07:49.962Z,36.33
2023-02-19T11:10:37.314Z,36.47
2023-02-19T11:13:13.449Z,36.29
2023-02-19T11:15:41.853Z,36.47
2023-02-19T11:18:12.804Z,36.52
2023-02-19T11:20:59.507Z,36.49
2023-02-19T11:23:35.985Z,36.94
2023-02-19T11:26:14.896Z,36.67
2023-02-19T11:28:44.218Z,36.77
2023-02-19T11:31:32.143Z,36.61
2023-02-19T11:34:01.322Z,35.99
2023-02-19T11:36:34.955Z,34.80
2023-02-19T11:39:16.757Z,33.88
2023-02-19T11:41:54.051Z,33.76
2023-02-19T11:44:34.780Z,34.21
2023-02-19T11:47:27.632Z,33.66
2023-02-19T11:50:10.925Z,33.54
2023-02-19T11:52:50.606Z,33.37
2023-02-19T11:55:25.955Z,34.15
2023-02-19T11:58:12.077Z,35.30
2023-02-19T12:01:09.763Z,36.36
2023-02-19T12:04:01.439Z,37.27
2023-02-19T12:06:45.996Z,37.73
2023-02-19T12:09:27.278Z,37.93
2023-02-19T12:12:01.290Z,37.93
2023-02-19T12:14:41.341Z,37.21
2023-02-19T12:17:34.195Z,37.21
2023-02-19T12:20:14.754Z,37.22
2023-02-19T12:23:15.160Z,38.03
2023-02-19T12:25:55.120Z,37.94
2023-02-19T12:28:35.406Z,38.26
2023-02-19T12:31:35.319Z,39.06
2023-02-19T12:34:25.122Z,39.66
2023-02-19T12:37:10.750Z,39.57
2023-02-19T12:39:55.850Z,39.64
2023-02-19T12:42:45.748Z,39.19
2023-02-19T12:45:28.143Z,39.72
2023-02-19T12:48:06.454Z,39.99
2023-02-19T12:50:36.068Z,40.61
2023-02-19T12:53:17.647Z,40.77
2023-02-19T12:55:46.676Z,41.81
2023-02-19T12:58:40.943Z,42.31
2023-02-19T13:01:14.259Z,43.03
2023-02-19T13:03:50.288Z,43.97
2023-02-19T13:06:28.084Z,44.66
2023-02-19T13:09:07.576Z,45.49
2023-02-19T13:12:04.582Z,45.99
2023-02-19T13:15:12.796Z,46.50
2023-02-19T13:17:56.612Z,47.24
2023-02-19T13:20:31.987Z,47.89
2023-02-19T13:23:27.494Z,48.50
2023-02-19T13:26:25.765Z,48.96
2023-02-19T13:29:19.948Z,49.23
2023-02-19T13:32:12.993Z,49.55
2023-02-19T13:35:23.486Z,49.93
2023-02-19T13:37:54.575Z,50.55
2023-02-19T13:40:25.360Z,50.61
2023-02-19T13:42:57.157Z,51.00
2023-02-19T13:45:42.417Z,51.32
2023-02-19T13:48:31.144Z,51.34
2023-02-19T13:51:34.771Z,51.40
2023-02-19T13:54:14.274Z,52.34
2023-02-19T13:56:42.500Z,52.54
2023-02-19T13:59:37.144Z,53.02
2023-02-19T14:02:14.714Z,53.42
2023-02-19T14:04:42.979Z,53.44
2023-02-19T14:07:11.005Z,53.54
2023-02-19T14:09:43.931Z,54.20
2023-02-19T14:12:16.011Z,54.18
2023-02-19T14:14:51.782Z,54.97
2023-02-19T14:17:48.952Z,54.79
2023-02-19T14:20:16.929Z,54.06
2023-02-19T14:22:49.085Z,51.73
2023-02-19T14:25:50.438Z,50.13
2023-02-19T14:28:35.511Z,47.79
2023-02-19T14:31:11.072Z,46.28
2023-02-19T14:33:52.617Z,44.62
2023-02-19T14:36:34.248Z,45.89
2023-02-19T14:39:12.545Z,46.35
2023-02-19T14:41:44.141Z,47.41
2023-02-19T14:44:18.079Z,48.10
2023-02-19T14:46:58.167Z,49.01
2023-02-19T14:49:33.323Z,49.64
2023-02-19T14:52:06.584Z,49.91
2023-02-19T14:54:48.592Z,50.56
2023-02-19T14:57:31.164Z,50.97
2023-02-19T15:00:16.690Z,51.46
2023-02-19T15:02:44.864Z,51.68
2023-02-19T15:05:23.693Z,51.99
2023-02-19T15:07:54.398Z,51.82
2023-02-19T15:10:23.166Z,51.90
2023-02-19T15:12:54.301Z,52.15
2023-02-19T15:15:25.505Z,52.36
2023-02-19T15:17:55.796Z,52.92
2023-02-19T15:20:28.462Z,53.41
2023-02-19T15:22:59.654Z,53.77
2023-02-19T15:25:34.591Z,54.05
2023-02-19T15:28:32.797Z,53.95
2023-02-19T15:31:00.713Z,53.72
2023-02-19T15:33:29.133Z,53.49
2023-02-19T15:36:00.992Z,53.32
2023-02-19T15:38:29.761Z,53.25
2023-02-19T15:40:58.818Z,52.67
2023-02-19T15:43:49.991Z,52.96
2023-02-19T15:46:24.832Z,53.11
2023-02-19T15:49:33.545Z,53.65
2023-02-19T15:52:08.294Z,55.31
2023-02-19T15:55:09.717Z,55.50
2023-02-19T15:57:43.728Z,56.08
2023-02-19T16:00:19.174Z,56.38
2023-02-19T16:02:48.806Z,57.16
2023-02-19T16:05:26.102Z,57.38
2023-02-19T16:08:20.031Z,58.31
2023-02-19T16:10:57.233Z,58.99
2023-02-19T16:13:31.634Z,60.86
2023-02-19T16:16:15.410Z,62.72
2023-02-19T16:18:49.169Z,63.40
2023-02-19T16:21:22.191Z,63.25
2023-02-19T16:23:57.080Z,64.50
2023-02-19T16:26:25.482Z,64.77
2023-02-19T16:28:54.994Z,65.38
2023-02-19T16:31:24.349Z,66.15
2023-02-19T16:33:52.577Z,67.10
2023-02-19T16:36:21.428Z,68.10
2023-02-19T16:39:08.161Z,68.91
2023-02-19T16:41:45.460Z,69.61
2023-02-19T16:44:27.553Z,69.76
2023-02-19T16:47:02.357Z,70.02
2023-02-19T16:49:31.184Z,70.41
2023-02-19T16:52:02.137Z,70.22
2023-02-19T16:54:31.920Z,69.89
2023-02-19T16:56:59.890Z,69.76
2023-02-19T16:59:27.862Z,69.93
2023-02-19T17:01:56.239Z,69.72
2023-02-19T17:04:24.522Z,69.74
2023-02-19T17:06:52.594Z,69.69
2023-02-19T17:09:20.767Z,69.43
2023-02-19T17:11:48.841Z,69.47
2023-02-19T17:14:16.914Z,68.98
2023-02-19T17:16:45.143Z,68.68
2023-02-19T17:19:18.923Z,68.85
2023-02-19T17:21:47.386Z,68.98
2023-02-19T17:24:19.566Z,68.78
2023-02-19T17:26:48.442Z,68.79
2023-02-19T17:29:18.564Z,68.41
2023-02-19T17:31:46.812Z,68.04
2023-02-19T17:34:15.224Z,67.52
2023-02-19T17:36:45.633Z,67.26
2023-02-19T17:39:15.653Z,66.88
2023-02-19T17:41:43.834Z,66.22
2023-02-19T17:44:12.115Z,66.39
2023-02-19T17:46:41.306Z,66.18
2023-02-19T17:49:12.664Z,66.12
2023-02-19T17:51:40.775Z,65.82
2023-02-19T17:54:09.634Z,65.65
2023-02-19T17:56:40.155Z,65.48
2023-02-19T17:59:09.338Z,65.07
2023-02-19T18:01:37.690Z,65.34
2023-02-19T18:04:06.236Z,64.67
2023-02-19T18:06:35.092Z,64.56
2023-02-19T18:09:06.030Z,64.63
2023-02-19T18:11:35.925Z,64.46
2023-02-19T18:14:05.247Z,64.18
2023-02-19T18:16:33.340Z,64.48
2023-02-19T18:19:02.437Z,64.41
2023-02-19T18:21:30.691Z,64.47
2023-02-19T18:23:58.656Z,64.73
2023-02-19T18:26:26.721Z,64.57
2023-02-19T18:28:54.898Z,64.63
2023-02-19T18:31:23.048Z,64.54
2023-02-19T18:33:51.555Z,64.12
2023-02-19T18:36:19.524Z,64.01
2023-02-19T18:38:47.807Z,63.97
2023-02-19T18:41:20.319Z,63.92
2023-02-19T18:43:48.964Z,63.19
2023-02-19T18:46:20.979Z,61.38
2023-02-19T18:48:49.109Z,61.24
2023-02-19T18:51:17.191Z,61.08
2023-02-19T18:53:45.468Z,61.09
2023-02-19T18:56:13.740Z,60.99
2023-02-19T18:58:41.873Z,61.12
2023-02-19T19:01:10.471Z,61.18
2023-02-19T19:03:39.068Z,61.61
2023-02-19T19:06:07.257Z,61.61
2023-02-19T19:08:35.224Z,62.33
2023-02-19T19:11:03.773Z,62.59
2023-02-19T19:13:31.669Z,62.50
2023-02-19T19:15:59.892Z,62.74
2023-02-19T19:18:28.023Z,62.99
2023-02-19T19:21:03.580Z,63.24
2023-02-19T19:23:31.623Z,64.20
2023-02-19T19:25:59.606Z,64.28
2023-02-19T19:28:27.779Z,64.24
2023-02-19T19:30:55.760Z,65.19
2023-02-19T19:33:23.833Z,65.45
2023-02-19T19:35:52.000Z,65.96
2023-02-19T19:38:20.062Z,66.19
2023-02-19T19:40:48.142Z,66.25
2023-02-19T19:43:16.210Z,66.80
2023-02-19T19:45:44.341Z,66.69
2023-02-19T19:48:12.367Z,67.05
2023-02-19T19:50:40.638Z,67.34
2023-02-19T19:53:08.716Z,67.04
2023-02-19T19:55:36.876Z,67.04
2023-02-19T19:58:05.029Z,67.13
2023-02-19T20:00:33.019Z,67.96
2023-02-19T20:03:02.078Z,68.30
2023-02-19T20:05:30.419Z,68.88
2023-02-19T20:07:58.456Z,69.67
2023-02-19T20:10:26.448Z,69.42
2023-02-19T20:12:54.520Z,70.52
2023-02-19T20:15:23.724Z,70.45
2023-02-19T20:17:51.984Z,70.86
2023-02-19T20:20:20.469Z,71.39
2023-02-19T20:22:50.108Z,71.68
2023-02-19T20:25:20.142Z,71.82
2023-02-19T20:27:49.547Z,72.00
2023-02-19T20:30:20.215Z,72.22
2023-02-19T20:32:48.287Z,72.82
2023-02-19T20:35:17.702Z,72.88
2023-02-19T20:37:48.132Z,72.98
2023-02-19T20:40:17.622Z,72.91
2023-02-19T20:42:45.592Z,73.45
2023-02-19T20:45:16.785Z,73.78
2023-02-19T20:47:45.028Z,73.54
2023-02-19T20:50:13.502Z,73.80
2023-02-19T20:52:41.594Z,74.18
2023-02-19T20:55:09.952Z,73.95
2023-02-19T20:57:38.527Z,74.07
2023-02-19T21:00:08.403Z,73.95
2023-02-19T21:02:36.476Z,73.88
2023-02-19T21:05:05.200Z,74.21
2023-02-19T21:07:33.506Z,74.44
2023-02-19T21:10:01.761Z,74.28
2023-02-19T21:12:29.935Z,74.39
2023-02-19T21:14:59.236Z,73.91
2023-02-19T21:17:27.307Z,73.88
2023-02-19T21:19:55.990Z,73.55
2023-02-19T21:22:23.964Z,73.33
2023-02-19T21:24:53.156Z,73.49
2023-02-19T21:27:21.195Z,73.47
2023-02-19T21:29:49.414Z,72.34
2023-02-19T21:32:17.466Z,72.64
2023-02-19T21:34:45.655Z,72.36
2023-02-19T21:37:13.627Z,71.65
2023-02-19T21:39:42.911Z,71.53
2023-02-19T21:42:11.103Z,70.80
2023-02-19T21:44:39.073Z,70.28
2023-02-19T21:47:07.140Z,69.89
2023-02-19T21:49:35.218Z,69.60
2023-02-19T21:52:03.417Z,68.64
2023-02-19T21:54:31.566Z,68.04
2023-02-19T21:57:02.407Z,68.04
2023-02-19T21:59:30.464Z,67.51
2023-02-19T22:01:58.734Z,67.49
2023-02-19T22:04:27.530Z,67.60
2023-02-19T22:06:56.926Z,67.61
2023-02-19T22:09:24.873Z,67.54
2023-02-19T22:11:53.176Z,66.78
2023-02-19T22:14:21.458Z,66.49
2023-02-19T22:16:49.409Z,65.91
2023-02-19T22:19:19.545Z,65.76
2023-02-19T22:21:47.527Z,65.70
2023-02-19T22:24:21.852Z,65.59
2023-02-19T22:26:51.233Z,65.65
2023-02-19T22:29:19.429Z,65.73
2023-02-19T22:31:47.931Z,65.55
2023-02-19T22:34:17.093Z,65.28
2023-02-19T22:36:45.448Z,65.75
2023-02-19T22:39:20.705Z,66.30
2023-02-19T22:41:49.808Z,66.50
2023-02-19T22:44:17.867Z,67.15
2023-02-19T22:46:52.454Z,67.01
2023-02-19T22:49:22.050Z,67.03
2023-02-19T22:51:52.338Z,67.59
2023-02-19T22:54:25.107Z,67.41
2023-02-19T22:56:56.370Z,68.14
2023-02-19T22:59:25.558Z,68.70
2023-02-19T23:01:54.533Z,68.95
2023-02-19T23:04:25.152Z,69.14
2023-02-19T23:06:53.370Z,68.82
2023-02-19T23:09:25.711Z,68.54
2023-02-19T23:12:01.146Z,68.92
2023-02-19T23:14:29.367Z,69.07
2023-02-19T23:16:57.820Z,68.81
2023-02-19T23:19:26.422Z,68.83
2023-02-19T23:21:54.701Z,68.81
2023-02-19T23:24:22.762Z,68.81
2023-02-19T23:26:52.942Z,68.26
2023-02-19T23:29:27.108Z,68.21
2023-02-19T23:31:55.429Z,68.07
2023-02-19T23:34:25.520Z,67.80
2023-02-19T23:36:54.495Z,68.14
2023-02-19T23:39:22.751Z,68.09
2023-02-19T23:41:54.064Z,68.34
2023-02-19T23:44:24.646Z,68.31
2023-02-19T23:46:52.790Z,68.18
2023-02-19T23:49:21.109Z,68.00
2023-02-19T23:51:49.557Z,67.82
2023-02-19T23:54:17.864Z,67.07
2023-02-19T23:56:45.924Z,67.05
2023-02-19T23:59:14.000Z,67.16
